Time;durP1;ratioP1;P1;durP2;ratioP2;P2;SDS_P1;SDS_P2;PMS_P1;PMS_P2;Temp;Humidity;BMP_temperature;BMP_pressure;BME280_temperature;BME280_humidity;BME280_pressure;Samples;Min_cycle;Max_cycle;Signal;HPM_P1;HPM_P2
2023/09/25 00:02:13;;;;;;;3.4;2;;;;;;;;;;;;;
2023/09/25 00:04:40;;;;;;;1.8;1.5;;;;;;;;;;;;;
2023/09/25 00:07:05;;;;;;;2.4;1.4;;;;;;;;;;;;;
2023/09/25 00:09:30;;;;;;;2.6;1.6;;;;;;;;;;;;;
2023/09/25 00:11:55;;;;;;;3.3;1.6;;;;;;;;;;;;;
2023/09/25 00:14:20;;;;;;;1.8;1.5;;;;;;;;;;;;;
2023/09/25 00:16:45;;;;;;;2.1;1.5;;;;;;;;;;;;;
2023/09/25 00:19:11;;;;;;;1.8;1.4;;;;;;;;;;;;;
2023/09/25 00:21:36;;;;;;;2.6;1.6;;;;;;;;;;;;;
2023/09/25 00:24:05;;;;;;;2.3;1.6;;;;;;;;;;;;;
2023/09/25 00:26:30;;;;;;;1.8;1.5;;;;;;;;;;;;;
2023/09/25 00:28:55;;;;;;;3.1;1.6;;;;;;;;;;;;;
2023/09/25 00:31:21;;;;;;;2;1.6;;;;;;;;;;;;;
2023/09/25 00:33:45;;;;;;;2.1;1.6;;;;;;;;;;;;;
2023/09/25 00:36:12;;;;;;;1.8;1.5;;;;;;;;;;;;;
2023/09/25 00:38:37;;;;;;;2.4;1.6;;;;;;;;;;;;;
2023/09/25 00:41:02;;;;;;;2.7;1.8;;;;;;;;;;;;;
2023/09/25 00:43:27;;;;;;;2.4;1.4;;;;;;;;;;;;;
2023/09/25 00:45:53;;;;;;;2.9;1.8;;;;;;;;;;;;;
2023/09/25 00:48:18;;;;;;;2.6;1.8;;;;;;;;;;;;;
2023/09/25 00:50:43;;;;;;;3.1;1.6;;;;;;;;;;;;;
2023/09/25 00:53:09;;;;;;;2.2;1.9;;;;;;;;;;;;;
2023/09/25 00:55:33;;;;;;;3.8;1.7;;;;;;;;;;;;;
2023/09/25 00:57:58;;;;;;;2.5;1.6;;;;;;;;;;;;;
2023/09/25 01:00:23;;;;;;;2.6;1.7;;;;;;;;;;;;;
2023/09/25 01:02:49;;;;;;;2;1.8;;;;;;;;;;;;;
2023/09/25 01:05:13;;;;;;;3.3;1.9;;;;;;;;;;;;;
2023/09/25 01:07:38;;;;;;;2.2;1.8;;;;;;;;;;;;;
2023/09/25 01:10:04;;;;;;;2.8;1.8;;;;;;;;;;;;;
2023/09/25 01:12:28;;;;;;;1.9;1.7;;;;;;;;;;;;;
2023/09/25 01:14:54;;;;;;;2.3;1.5;;;;;;;;;;;;;
2023/09/25 01:17:19;;;;;;;2.4;1.6;;;;;;;;;;;;;
2023/09/25 01:19:44;;;;;;;1.4;1.3;;;;;;;;;;;;;
2023/09/25 01:22:10;;;;;;;2.4;1.4;;;;;;;;;;;;;
2023/09/25 01:24:35;;;;;;;2.3;1.6;;;;;;;;;;;;;
2023/09/25 01:27:03;;;;;;;2.5;1.7;;;;;;;;;;;;;
2023/09/25 01:29:28;;;;;;;3.8;1.7;;;;;;;;;;;;;
2023/09/25 01:31:53;;;;;;;2.4;1.6;;;;;;;;;;;;;
2023/09/25 01:34:19;;;;;;;2.1;1.6;;;;;;;;;;;;;
2023/09/25 01:36:44;;;;;;;2;1.5;;;;;;;;;;;;;
2023/09/25 01:39:10;;;;;;;3;1.6;;;;;;;;;;;;;
2023/09/25 01:41:34;;;;;;;3.6;1.7;;;;;;;;;;;;;
2023/09/25 01:44:01;;;;;;;3;1.6;;;;;;;;;;;;;
2023/09/25 01:46:26;;;;;;;2;1.5;;;;;;;;;;;;;
2023/09/25 01:48:51;;;;;;;1.9;1.6;;;;;;;;;;;;;
2023/09/25 01:51:16;;;;;;;2.8;1.3;;;;;;;;;;;;;
2023/09/25 01:53:45;;;;;;;2.8;1.7;;;;;;;;;;;;;
2023/09/25 01:56:07;;;;;;;2.5;1.8;;;;;;;;;;;;;
2023/09/25 01:58:32;;;;;;;2.6;1.6;;;;;;;;;;;;;
2023/09/25 02:00:57;;;;;;;1.9;1.7;;;;;;;;;;;;;
2023/09/25 02:03:22;;;;;;;1.7;1.6;;;;;;;;;;;;;
2023/09/25 02:05:47;;;;;;;2;1.4;;;;;;;;;;;;;
2023/09/25 02:08:13;;;;;;;4.6;1.6;;;;;;;;;;;;;
2023/09/25 02:10:38;;;;;;;2.5;1.5;;;;;;;;;;;;;
2023/09/25 02:13:03;;;;;;;3.5;1.6;;;;;;;;;;;;;
2023/09/25 02:15:28;;;;;;;2.3;1.5;;;;;;;;;;;;;
2023/09/25 02:17:54;;;;;;;1.5;1.4;;;;;;;;;;;;;
2023/09/25 02:20:20;;;;;;;2.2;1.6;;;;;;;;;;;;;
2023/09/25 02:22:46;;;;;;;2.4;1.5;;;;;;;;;;;;;
2023/09/25 02:25:11;;;;;;;1.8;1.5;;;;;;;;;;;;;
2023/09/25 02:27:35;;;;;;;1.6;1.3;;;;;;;;;;;;;
2023/09/25 02:30:00;;;;;;;2.3;1.5;;;;;;;;;;;;;
2023/09/25 02:32:25;;;;;;;2.5;1.4;;;;;;;;;;;;;
2023/09/25 02:34:50;;;;;;;1.5;1.4;;;;;;;;;;;;;
2023/09/25 02:37:15;;;;;;;3.1;1.5;;;;;;;;;;;;;
2023/09/25 02:39:41;;;;;;;1.4;1.3;;;;;;;;;;;;;
2023/09/25 02:42:06;;;;;;;2;1.5;;;;;;;;;;;;;
2023/09/25 02:44:31;;;;;;;2.2;1.5;;;;;;;;;;;;;
2023/09/25 02:46:57;;;;;;;2.8;1.5;;;;;;;;;;;;;
2023/09/25 02:49:22;;;;;;;3.1;1.6;;;;;;;;;;;;;
2023/09/25 02:51:47;;;;;;;2.6;1.7;;;;;;;;;;;;;
2023/09/25 02:54:12;;;;;;;2.3;1.6;;;;;;;;;;;;;
2023/09/25 02:56:37;;;;;;;1.4;1.3;;;;;;;;;;;;;
2023/09/25 02:59:02;;;;;;;2.1;1.3;;;;;;;;;;;;;
2023/09/25 03:01:29;;;;;;;2.5;1.4;;;;;;;;;;;;;
2023/09/25 03:03:53;;;;;;;2.2;1.4;;;;;;;;;;;;;
2023/09/25 03:06:20;;;;;;;1.5;1.4;;;;;;;;;;;;;
2023/09/25 03:08:45;;;;;;;1.7;1.5;;;;;;;;;;;;;
2023/09/25 03:11:13;;;;;;;1.6;1.5;;;;;;;;;;;;;
2023/09/25 03:13:38;;;;;;;2.4;1.5;;;;;;;;;;;;;
2023/09/25 03:16:06;;;;;;;1.6;1.5;;;;;;;;;;;;;
2023/09/25 03:18:31;;;;;;;1.6;1.3;;;;;;;;;;;;;
2023/09/25 03:20:57;;;;;;;1.6;1.5;;;;;;;;;;;;;
2023/09/25 03:23:22;;;;;;;4.9;1.7;;;;;;;;;;;;;
2023/09/25 03:25:47;;;;;;;1.8;1.4;;;;;;;;;;;;;
2023/09/25 03:28:12;;;;;;;2.1;1.7;;;;;;;;;;;;;
2023/09/25 03:30:40;;;;;;;2.6;1.5;;;;;;;;;;;;;
2023/09/25 03:33:05;;;;;;;2;1.4;;;;;;;;;;;;;
2023/09/25 03:35:31;;;;;;;2;1.5;;;;;;;;;;;;;
2023/09/25 03:37:56;;;;;;;2.2;1.6;;;;;;;;;;;;;
2023/09/25 03:40:22;;;;;;;1.7;1.4;;;;;;;;;;;;;
2023/09/25 03:42:47;;;;;;;3.8;1.7;;;;;;;;;;;;;
2023/09/25 03:45:15;;;;;;;3.1;1.5;;;;;;;;;;;;;
2023/09/25 03:47:42;;;;;;;2;1.4;;;;;;;;;;;;;
2023/09/25 03:50:07;;;;;;;2.8;1.3;;;;;;;;;;;;;
2023/09/25 03:52:36;;;;;;;1.9;1.4;;;;;;;;;;;;;
2023/09/25 03:55:01;;;;;;;1.7;1.4;;;;;;;;;;;;;
2023/09/25 03:57:28;;;;;;;1.6;1.3;;;;;;;;;;;;;
2023/09/25 03:59:53;;;;;;;1.8;1.3;;;;;;;;;;;;;
2023/09/25 04:02:40;;;;;;;2.4;1.6;;;;;;;8.13;95.36328;943.5359;;;;
2023/09/25 04:05:17;;;;;;;3.3;1.4;;;;;;;8.13;95.06836;943.5233;;;;
2023/09/25 04:07:42;;;;;;;2.4;1.6;;;;;;;8.15;94.39063;943.4928;;;;
2023/09/25 04:10:18;;;;;;;2.5;1.4;;;;;;;8;95.0293;943.4727;;;;
2023/09/25 04:12:42;;;;;;;2;1.6;;;;;;;7.89;95.63867;943.514;;;;
2023/09/25 04:15:13;;;;;;;2.1;1.3;;;;;;;7.87;95.88574;943.5016;;;;
2023/09/25 04:17:38;;;;;;;2.6;1.5;;;;;;;7.92;95.55566;943.4792;;;;
2023/09/25 04:20:08;;;;;;;2.4;1.7;;;;;;;7.81;95.51855;943.4801;;;;
2023/09/25 04:22:37;;;;;;;2.1;1.6;;;;;;;7.65;96.32324;943.45;;;;
2023/09/25 04:24:59;;;;;;;3.4;1.8;;;;;;;7.45;97.52637;943.3851;;;;
2023/09/25 04:27:31;;;;;;;3.2;2.1;;;;;;;7.13;99.4248;943.4496;;;;
2023/09/25 04:29:59;;;;;;;2.4;1.8;;;;;;;7.2;99.66602;943.4373;;;;
2023/09/25 04:32:24;;;;;;;2.6;1.7;;;;;;;7.14;100;943.3879;;;;
2023/09/25 04:34:59;;;;;;;2.5;1.7;;;;;;;7.24;99.70898;943.4539;;;;
2023/09/25 04:37:30;;;;;;;2.3;1.8;;;;;;;7.07;100;943.3908;;;;
2023/09/25 04:39:55;;;;;;;2;1.6;;;;;;;7.06;100;943.3658;;;;
2023/09/25 04:42:24;;;;;;;2.3;1.7;;;;;;;7.2;100;943.3535;;;;
2023/09/25 04:44:49;;;;;;;2.1;1.6;;;;;;;7.15;100;943.3795;;;;
2023/09/25 04:47:22;;;;;;;1.8;1.6;;;;;;;7.25;100;943.4517;;;;
2023/09/25 04:49:51;;;;;;;4.4;2.1;;;;;;;7.28;99.68359;943.4289;;;;
2023/09/25 04:52:24;;;;;;;4.2;1.9;;;;;;;7.26;99.59961;943.4473;;;;
2023/09/25 04:54:47;;;;;;;2.5;1.9;;;;;;;7.44;98.72363;943.4135;;;;
2023/09/25 04:57:14;;;;;;;2.1;1.9;;;;;;;7.33;98.39258;943.3862;;;;
2023/09/25 04:59:37;;;;;;;2.4;1.7;;;;;;;7.37;99.1377;943.3167;;;;
2023/09/25 05:02:06;;;;;;;1.7;1.5;;;;;;;7.49;98.71289;943.426;;;;
2023/09/25 05:04:39;;;;;;;3.7;1.9;;;;;;;7.59;97.625;943.4653;;;;
2023/09/25 05:07:09;;;;;;;2.7;1.8;;;;;;;7.48;97.14453;943.466;;;;
2023/09/25 05:09:40;;;;;;;3.5;2;;;;;;;7.51;96.59766;943.3925;;;;
2023/09/25 05:12:11;;;;;;;2.7;2.1;;;;;;;7.37;96.86133;943.4974;;;;
2023/09/25 05:14:40;;;;;;;2.1;1.9;;;;;;;7.21;98.00098;943.485;;;;
2023/09/25 05:17:06;;;;;;;2.9;2.1;;;;;;;7.11;98.875;943.5305;;;;
2023/09/25 05:19:33;;;;;;;2.4;1.9;;;;;;;7.17;99.18457;943.5854;;;;
2023/09/25 05:21:59;;;;;;;1.7;1.5;;;;;;;7.16;99.42969;943.6697;;;;
2023/09/25 05:24:26;;;;;;;1.8;1.5;;;;;;;7.14;99.80078;943.6369;;;;
2023/09/25 05:26:51;;;;;;;2.5;1.8;;;;;;;7.22;99.70508;943.6434;;;;
2023/09/25 05:29:19;;;;;;;2.4;1.8;;;;;;;7.3;99.50781;943.6483;;;;
2023/09/25 05:31:44;;;;;;;3.3;1.6;;;;;;;7.47;98.40332;943.6409;;;;
2023/09/25 05:34:12;;;;;;;2.8;1.7;;;;;;;7.26;98.98828;943.6469;;;;
2023/09/25 05:36:38;;;;;;;2.8;1.9;;;;;;;7.4;98.97559;943.6584;;;;
2023/09/25 05:39:08;;;;;;;4.4;2;;;;;;;7.39;98.68066;943.6431;;;;
2023/09/25 05:41:29;;;;;;;2.3;2;;;;;;;7.6;97.99219;943.6336;;;;
2023/09/25 05:43:57;;;;;;;2.9;2.6;;;;;;;7.67;97.25781;943.6875;;;;
2023/09/25 05:46:25;;;;;;;3.1;2.9;;;;;;;7.88;97.99902;943.7151;;;;
2023/09/25 05:48:54;;;;;;;3.8;2.3;;;;;;;8.33;95.89355;943.762;;;;
2023/09/25 05:51:18;;;;;;;2;1.6;;;;;;;8.78;91.43652;943.769;;;;
2023/09/25 05:53:43;;;;;;;1.9;1.3;;;;;;;9.15;89.35254;943.7809;;;;
2023/09/25 05:56:10;;;;;;;2.3;1.7;;;;;;;9.32;87.76953;943.6976;;;;
2023/09/25 05:58:37;;;;;;;3.2;1.8;;;;;;;9.54;87.51953;943.8269;;;;
2023/09/25 06:01:00;;;;;;;2.5;1.9;;;;;;;9.74;85.94141;943.7767;;;;
2023/09/25 06:03:28;;;;;;;3.9;2.1;;;;;;;9.85;85.75781;943.7037;;;;
2023/09/25 06:05:52;;;;;;;2.4;1.9;;;;;;;10.17;85.21777;943.6699;;;;
2023/09/25 06:08:18;;;;;;;4;1.6;;;;;;;10.31;83.58984;943.6947;;;;
2023/09/25 06:10:44;;;;;;;1.8;1.5;;;;;;;10.41;83.10742;943.6993;;;;
2023/09/25 06:13:11;;;;;;;2;1.5;;;;;;;10.31;83.03125;943.7814;;;;
2023/09/25 06:15:37;;;;;;;2.4;1.5;;;;;;;10.34;83.69922;943.7614;;;;
2023/09/25 06:18:02;;;;;;;2.8;1.3;;;;;;;10.09;82.7041;943.7487;;;;
2023/09/25 06:20:27;;;;;;;1.7;1.2;;;;;;;10.36;83.24707;943.7466;;;;
2023/09/25 06:22:51;;;;;;;3.2;1.8;;;;;;;10.02;83.54688;943.7458;;;;
2023/09/25 06:25:18;;;;;;;3.7;1.8;;;;;;;10.23;84.63574;943.7505;;;;
2023/09/25 06:27:44;;;;;;;4.2;1.7;;;;;;;10.12;83.97559;943.8153;;;;
2023/09/25 06:30:09;;;;;;;3.5;1.8;;;;;;;10.12;85.41406;943.7429;;;;
2023/09/25 06:32:33;;;;;;;2.3;1.6;;;;;;;;;;;;;
2023/09/25 06:34:59;;;;;;;2.6;1.8;;;;;;;;;;;;;
2023/09/25 06:37:24;;;;;;;2.5;1.6;;;;;;;;;;;;;
2023/09/25 06:39:49;;;;;;;2.4;1.6;;;;;;;;;;;;;
2023/09/25 06:42:14;;;;;;;1.7;1.4;;;;;;;;;;;;;
2023/09/25 06:44:42;;;;;;;2.5;1.6;;;;;;;;;;;;;
2023/09/25 06:47:07;;;;;;;2.1;1.3;;;;;;;;;;;;;
2023/09/25 06:49:33;;;;;;;4.3;1.5;;;;;;;;;;;;;
2023/09/25 06:51:59;;;;;;;2.4;1.2;;;;;;;;;;;;;
2023/09/25 06:54:24;;;;;;;1.2;1.1;;;;;;;;;;;;;
2023/09/25 06:56:50;;;;;;;1.8;1.2;;;;;;;;;;;;;
2023/09/25 06:59:15;;;;;;;1.5;1.2;;;;;;;;;;;;;
2023/09/25 07:01:40;;;;;;;1.3;1.2;;;;;;;;;;;;;
2023/09/25 07:04:07;;;;;;;2.3;1.3;;;;;;;;;;;;;
2023/09/25 07:06:33;;;;;;;1.5;1;;;;;;;;;;;;;
2023/09/25 07:08:59;;;;;;;1.6;1.2;;;;;;;;;;;;;
2023/09/25 07:11:23;;;;;;;1.6;1.1;;;;;;;;;;;;;
2023/09/25 07:13:51;;;;;;;3;1.2;;;;;;;;;;;;;
2023/09/25 07:16:16;;;;;;;1.6;1.1;;;;;;;;;;;;;
2023/09/25 07:18:47;;;;;;;1.6;1;;;;;;;;;;;;;
2023/09/25 07:21:10;;;;;;;1.4;1.2;;;;;;;;;;;;;
2023/09/25 07:23:37;;;;;;;1.3;1;;;;;;;;;;;;;
2023/09/25 07:26:02;;;;;;;1.4;1;;;;;;;;;;;;;
2023/09/25 07:28:27;;;;;;;1.9;1;;;;;;;;;;;;;
2023/09/25 07:30:52;;;;;;;1.9;1.2;;;;;;;;;;;;;
2023/09/25 07:33:18;;;;;;;1.3;0.9;;;;;;;;;;;;;
2023/09/25 07:35:43;;;;;;;1.2;1.1;;;;;;;;;;;;;
2023/09/25 07:38:10;;;;;;;2;0.8;;;;;;;;;;;;;
2023/09/25 07:40:35;;;;;;;1.5;1.1;;;;;;;;;;;;;
2023/09/25 07:43:01;;;;;;;1.6;1;;;;;;;;;;;;;
2023/09/25 07:45:26;;;;;;;1.8;1.2;;;;;;;;;;;;;
2023/09/25 07:47:54;;;;;;;4.3;0.9;;;;;;;;;;;;;
2023/09/25 07:50:23;;;;;;;2.2;1;;;;;;;;;;;;;
2023/09/25 07:52:42;;;;;;;1.1;0.9;;;;;;;;;;;;;
2023/09/25 07:55:10;;;;;;;1.4;1.1;;;;;;;;;;;;;
2023/09/25 07:57:34;;;;;;;1.6;1;;;;;;;;;;;;;
2023/09/25 08:00:10;;;;;;;1.9;0.9;;;;;;;;;;;;;
2023/09/25 08:02:27;;;;;;;0.9;0.8;;;;;;;;;;;;;
2023/09/25 08:04:53;;;;;;;1.9;1.1;;;;;;;;;;;;;
2023/09/25 08:07:19;;;;;;;1.5;1;;;;;;;;;;;;;
2023/09/25 08:09:45;;;;;;;1.2;0.8;;;;;;;;;;;;;
2023/09/25 08:12:10;;;;;;;1.1;1;;;;;;;;;;;;;
2023/09/25 08:14:36;;;;;;;2.3;1.1;;;;;;;;;;;;;
2023/09/25 08:17:02;;;;;;;1.4;1.2;;;;;;;;;;;;;
2023/09/25 08:19:27;;;;;;;1.8;0.9;;;;;;;;;;;;;
2023/09/25 08:21:53;;;;;;;0.8;0.8;;;;;;;;;;;;;
2023/09/25 08:24:18;;;;;;;1.6;1.1;;;;;;;;;;;;;
2023/09/25 08:26:46;;;;;;;1.9;1;;;;;;;;;;;;;
2023/09/25 08:29:08;;;;;;;2;0.8;;;;;;;;;;;;;
2023/09/25 08:31:34;;;;;;;2.7;1;;;;;;;;;;;;;
2023/09/25 08:33:59;;;;;;;1.2;0.8;;;;;;;;;;;;;
2023/09/25 08:36:29;;;;;;;1.4;0.9;;;;;;;;;;;;;
2023/09/25 08:38:55;;;;;;;2.2;1;;;;;;;;;;;;;
2023/09/25 08:41:21;;;;;;;1.5;0.9;;;;;;;;;;;;;
2023/09/25 08:43:46;;;;;;;1.4;0.9;;;;;;;;;;;;;
2023/09/25 08:46:11;;;;;;;2.1;0.7;;;;;;;;;;;;;
2023/09/25 08:48:37;;;;;;;1.2;1;;;;;;;;;;;;;
2023/09/25 08:51:03;;;;;;;1.4;1.1;;;;;;;;;;;;;
2023/09/25 08:53:29;;;;;;;1.2;0.9;;;;;;;;;;;;;
2023/09/25 08:55:54;;;;;;;0.8;0.8;;;;;;;;;;;;;
2023/09/25 08:58:18;;;;;;;2;0.8;;;;;;;;;;;;;
2023/09/25 09:00:44;;;;;;;1.3;0.9;;;;;;;;;;;;;
2023/09/25 09:03:08;;;;;;;0.7;0.6;;;;;;;;;;;;;
2023/09/25 09:05:34;;;;;;;0.8;0.7;;;;;;;;;;;;;
2023/09/25 09:07:59;;;;;;;1;0.8;;;;;;;;;;;;;
2023/09/25 09:10:27;;;;;;;0.8;0.8;;;;;;;;;;;;;
2023/09/25 09:12:53;;;;;;;1.7;0.9;;;;;;;;;;;;;
2023/09/25 09:15:16;;;;;;;0.8;0.8;;;;;;;;;;;;;
2023/09/25 09:17:42;;;;;;;1.5;0.8;;;;;;;;;;;;;
2023/09/25 09:20:07;;;;;;;2.6;1.1;;;;;;;;;;;;;
2023/09/25 09:22:32;;;;;;;1.6;1;;;;;;;;;;;;;
2023/09/25 09:24:59;;;;;;;1.9;1;;;;;;;;;;;;;
2023/09/25 09:27:24;;;;;;;1.4;1;;;;;;;;;;;;;
2023/09/25 09:29:49;;;;;;;1.4;1.2;;;;;;;;;;;;;
2023/09/25 09:32:15;;;;;;;1.3;1;;;;;;;;;;;;;
2023/09/25 09:34:40;;;;;;;1.1;1;;;;;;;;;;;;;
2023/09/25 09:37:08;;;;;;;0.9;0.9;;;;;;;;;;;;;
2023/09/25 09:39:36;;;;;;;1.6;1.1;;;;;;;;;;;;;
2023/09/25 09:41:57;;;;;;;1.6;0.9;;;;;;;;;;;;;
2023/09/25 09:44:22;;;;;;;2.3;1.2;;;;;;;;;;;;;
2023/09/25 09:46:50;;;;;;;1.8;1.1;;;;;;;;;;;;;
2023/09/25 09:49:12;;;;;;;1.8;1;;;;;;;;;;;;;
2023/09/25 09:51:39;;;;;;;1.3;1;;;;;;;;;;;;;
2023/09/25 09:54:05;;;;;;;2.2;0.9;;;;;;;;;;;;;
2023/09/25 09:56:28;;;;;;;1.9;1.1;;;;;;;;;;;;;
2023/09/25 09:58:53;;;;;;;3.2;1;;;;;;;;;;;;;
2023/09/25 10:01:18;;;;;;;1.3;0.8;;;;;;;;;;;;;
2023/09/25 10:03:44;;;;;;;1;0.9;;;;;;;;;;;;;
2023/09/25 10:06:10;;;;;;;3.1;1.1;;;;;;;;;;;;;
2023/09/25 10:08:35;;;;;;;1.4;1;;;;;;;;;;;;;
2023/09/25 10:11:00;;;;;;;1.8;1;;;;;;;;;;;;;
2023/09/25 10:13:26;;;;;;;2.3;1.1;;;;;;;;;;;;;
2023/09/25 10:15:50;;;;;;;1.6;0.9;;;;;;;;;;;;;
2023/09/25 10:18:16;;;;;;;0.9;0.8;;;;;;;;;;;;;
2023/09/25 10:20:42;;;;;;;1.1;0.8;;;;;;;;;;;;;
2023/09/25 10:23:07;;;;;;;1;0.9;;;;;;;;;;;;;
2023/09/25 10:25:32;;;;;;;2.1;0.9;;;;;;;;;;;;;
2023/09/25 10:27:57;;;;;;;1.8;0.8;;;;;;;;;;;;;
2023/09/25 10:30:22;;;;;;;1.1;0.8;;;;;;;;;;;;;
2023/09/25 10:32:48;;;;;;;1.1;0.9;;;;;;;;;;;;;
2023/09/25 10:35:15;;;;;;;1.1;0.9;;;;;;;;;;;;;
2023/09/25 10:37:40;;;;;;;1.1;0.8;;;;;;;;;;;;;
2023/09/25 10:40:06;;;;;;;1.5;1;;;;;;;;;;;;;
2023/09/25 10:42:30;;;;;;;1.6;1.1;;;;;;;;;;;;;
2023/09/25 10:44:56;;;;;;;1.8;0.8;;;;;;;;;;;;;
2023/09/25 10:47:21;;;;;;;1.5;1.1;;;;;;;;;;;;;
2023/09/25 10:49:47;;;;;;;1.4;0.8;;;;;;;;;;;;;
2023/09/25 10:52:11;;;;;;;2.3;0.8;;;;;;;;;;;;;
2023/09/25 10:54:37;;;;;;;1.3;0.9;;;;;;;;;;;;;
2023/09/25 10:57:02;;;;;;;2.5;1;;;;;;;;;;;;;
2023/09/25 10:59:28;;;;;;;1.9;1;;;;;;;;;;;;;
2023/09/25 11:01:54;;;;;;;1.1;0.8;;;;;;;;;;;;;
2023/09/25 11:04:20;;;;;;;1.7;0.8;;;;;;;;;;;;;
2023/09/25 11:06:45;;;;;;;1.2;0.7;;;;;;;;;;;;;
2023/09/25 11:09:11;;;;;;;1.2;1;;;;;;;;;;;;;
2023/09/25 11:11:35;;;;;;;1.5;0.7;;;;;;;;;;;;;
2023/09/25 11:14:00;;;;;;;1;0.8;;;;;;;;;;;;;
2023/09/25 11:16:26;;;;;;;2.1;1;;;;;;;;;;;;;
2023/09/25 11:18:52;;;;;;;0.8;0.7;;;;;;;;;;;;;
2023/09/25 11:21:17;;;;;;;3.2;1;;;;;;;;;;;;;
2023/09/25 11:23:43;;;;;;;1;0.8;;;;;;;;;;;;;
2023/09/25 11:26:07;;;;;;;1.3;0.8;;;;;;;;;;;;;
2023/09/25 11:28:33;;;;;;;1.4;1;;;;;;;;;;;;;
2023/09/25 11:30:58;;;;;;;3.3;1.2;;;;;;;;;;;;;
2023/09/25 11:33:24;;;;;;;0.9;0.7;;;;;;;;;;;;;
2023/09/25 11:35:49;;;;;;;1.8;0.9;;;;;;;;;;;;;
2023/09/25 11:38:17;;;;;;;0.9;0.8;;;;;;;;;;;;;
2023/09/25 11:40:42;;;;;;;1.8;1.2;;;;;;;;;;;;;
2023/09/25 11:43:07;;;;;;;3.1;1.4;;;;;;;;;;;;;
2023/09/25 11:45:33;;;;;;;1.6;0.9;;;;;;;;;;;;;
2023/09/25 11:48:00;;;;;;;2;1.1;;;;;;;;;;;;;
2023/09/25 11:50:25;;;;;;;1.3;0.9;;;;;;;;;;;;;
2023/09/25 11:52:50;;;;;;;1.6;1;;;;;;;;;;;;;
2023/09/25 11:55:15;;;;;;;0.8;0.8;;;;;;;;;;;;;
2023/09/25 11:57:43;;;;;;;0.8;0.8;;;;;;;;;;;;;
2023/09/25 12:00:08;;;;;;;2;0.8;;;;;;;;;;;;;
2023/09/25 12:02:33;;;;;;;1.5;1;;;;;;;;;;;;;
2023/09/25 12:04:58;;;;;;;1.5;0.7;;;;;;;;;;;;;
2023/09/25 12:07:26;;;;;;;1.9;1.2;;;;;;;;;;;;;
2023/09/25 12:09:49;;;;;;;0.7;0.7;;;;;;;;;;;;;
2023/09/25 12:12:16;;;;;;;2.8;1.3;;;;;;;;;;;;;
2023/09/25 12:14:41;;;;;;;2.2;1.4;;;;;;;;;;;;;
2023/09/25 12:17:08;;;;;;;3.2;1.4;;;;;;;;;;;;;
2023/09/25 12:19:32;;;;;;;1.1;0.8;;;;;;;;;;;;;
2023/09/25 12:21:57;;;;;;;1.1;0.8;;;;;;;;;;;;;
2023/09/25 12:24:23;;;;;;;1.3;0.7;;;;;;;;;;;;;
2023/09/25 12:26:50;;;;;;;0.7;0.7;;;;;;;;;;;;;
2023/09/25 12:29:14;;;;;;;1.4;0.8;;;;;;;;;;;;;
2023/09/25 12:31:40;;;;;;;1.4;0.9;;;;;;;;;;;;;
2023/09/25 12:34:06;;;;;;;1.4;1.2;;;;;;;;;;;;;
2023/09/25 12:36:32;;;;;;;1.3;0.8;;;;;;;;;;;;;
2023/09/25 12:38:57;;;;;;;1;0.9;;;;;;;;;;;;;
2023/09/25 12:41:24;;;;;;;1.2;0.8;;;;;;;;;;;;;
2023/09/25 12:43:48;;;;;;;0.9;0.9;;;;;;;;;;;;;
2023/09/25 12:46:13;;;;;;;1.6;0.8;;;;;;;;;;;;;
2023/09/25 12:48:39;;;;;;;0.8;0.7;;;;;;;;;;;;;
2023/09/25 12:51:05;;;;;;;1.7;1.1;;;;;;;;;;;;;
2023/09/25 12:53:30;;;;;;;1.2;1.1;;;;;;;;;;;;;
2023/09/25 12:55:57;;;;;;;0.8;0.8;;;;;;;;;;;;;
2023/09/25 12:58:22;;;;;;;1.3;1.1;;;;;;;;;;;;;
2023/09/25 13:00:49;;;;;;;1.8;0.9;;;;;;;;;;;;;
2023/09/25 13:03:14;;;;;;;0.9;0.9;;;;;;;;;;;;;
2023/09/25 13:05:39;;;;;;;1.3;0.9;;;;;;;;;;;;;
2023/09/25 13:08:05;;;;;;;0.7;0.7;;;;;;;;;;;;;
2023/09/25 13:10:30;;;;;;;1.1;0.7;;;;;;;;;;;;;
2023/09/25 13:12:54;;;;;;;1.9;1;;;;;;;;;;;;;
2023/09/25 13:15:20;;;;;;;0.9;0.6;;;;;;;;;;;;;
2023/09/25 13:17:46;;;;;;;1;0.9;;;;;;;;;;;;;
2023/09/25 13:20:11;;;;;;;3.2;1;;;;;;;;;;;;;
2023/09/25 13:22:36;;;;;;;1.9;0.9;;;;;;;;;;;;;
2023/09/25 13:25:02;;;;;;;1;0.9;;;;;;;;;;;;;
2023/09/25 13:27:27;;;;;;;1.3;0.8;;;;;;;;;;;;;
2023/09/25 13:29:52;;;;;;;1.4;1;;;;;;;;;;;;;
2023/09/25 13:32:17;;;;;;;1.2;1;;;;;;;;;;;;;
2023/09/25 13:34:44;;;;;;;1.6;0.9;;;;;;;;;;;;;
2023/09/25 13:37:09;;;;;;;0.8;0.8;;;;;;;;;;;;;
2023/09/25 13:39:34;;;;;;;1;0.9;;;;;;;;;;;;;
2023/09/25 13:41:59;;;;;;;1.8;0.9;;;;;;;;;;;;;
2023/09/25 13:44:24;;;;;;;0.8;0.8;;;;;;;;;;;;;
2023/09/25 13:46:54;;;;;;;0.8;0.8;;;;;;;;;;;;;
2023/09/25 13:49:15;;;;;;;1.2;1.1;;;;;;;;;;;;;
2023/09/25 13:51:39;;;;;;;0.8;0.8;;;;;;;;;;;;;
2023/09/25 13:54:05;;;;;;;2.7;0.9;;;;;;;;;;;;;
2023/09/25 13:56:37;;;;;;;3.2;0.9;;;;;;;;;;;;;
2023/09/25 13:58:56;;;;;;;1;0.8;;;;;;;;;;;;;
2023/09/25 14:01:24;;;;;;;1.8;1;;;;;;;;;;;;;
2023/09/25 14:03:51;;;;;;;2.4;0.8;;;;;;;;;;;;;
2023/09/25 14:06:15;;;;;;;1.2;0.9;;;;;;;;;;;;;
2023/09/25 14:08:40;;;;;;;1.4;0.9;;;;;;;;;;;;;
2023/09/25 14:11:07;;;;;;;0.8;0.8;;;;;;;;;;;;;
2023/09/25 14:13:32;;;;;;;1.1;1;;;;;;;;;;;;;
2023/09/25 14:15:57;;;;;;;2.3;1.1;;;;;;;;;;;;;
2023/09/25 14:18:22;;;;;;;0.7;0.7;;;;;;;;;;;;;
2023/09/25 14:20:49;;;;;;;0.8;0.8;;;;;;;;;;;;;
2023/09/25 14:23:13;;;;;;;1.2;1;;;;;;;;;;;;;
2023/09/25 14:25:40;;;;;;;0.8;0.8;;;;;;;;;;;;;
2023/09/25 14:28:05;;;;;;;1;0.9;;;;;;;;;;;;;
2023/09/25 14:30:31;;;;;;;0.8;0.8;;;;;;;;;;;;;
2023/09/25 14:32:56;;;;;;;1.4;1;;;;;;;;;;;;;
2023/09/25 14:35:21;;;;;;;1.8;1.1;;;;;;;;;;;;;
2023/09/25 14:37:47;;;;;;;1.1;0.9;;;;;;;;;;;;;
2023/09/25 14:40:13;;;;;;;3.4;1;;;;;;;;;;;;;
2023/09/25 14:42:37;;;;;;;1.3;1;;;;;;;;;;;;;
2023/09/25 14:45:03;;;;;;;0.9;0.7;;;;;;;;;;;;;
2023/09/25 14:47:28;;;;;;;1.5;0.8;;;;;;;;;;;;;
2023/09/25 14:49:54;;;;;;;0.8;0.8;;;;;;;;;;;;;
2023/09/25 14:52:19;;;;;;;1.6;1.1;;;;;;;;;;;;;
2023/09/25 14:54:45;;;;;;;1.4;1.1;;;;;;;;;;;;;
2023/09/25 14:57:10;;;;;;;1.9;1;;;;;;;;;;;;;
2023/09/25 14:59:35;;;;;;;1.3;0.9;;;;;;;;;;;;;
2023/09/25 15:02:00;;;;;;;1.9;1;;;;;;;;;;;;;
2023/09/25 15:04:26;;;;;;;0.9;0.9;;;;;;;;;;;;;
2023/09/25 15:06:51;;;;;;;1.1;1;;;;;;;;;;;;;
2023/09/25 15:09:16;;;;;;;1.3;0.9;;;;;;;;;;;;;
2023/09/25 15:11:42;;;;;;;1.1;1;;;;;;;;;;;;;
2023/09/25 15:14:07;;;;;;;1.3;1;;;;;;;;;;;;;
2023/09/25 15:16:35;;;;;;;0.9;0.8;;;;;;;;;;;;;
2023/09/25 15:19:02;;;;;;;1.5;0.9;;;;;;;;;;;;;
2023/09/25 15:21:27;;;;;;;0.9;0.8;;;;;;;;;;;;;
2023/09/25 15:23:52;;;;;;;1.5;1.1;;;;;;;;;;;;;
2023/09/25 15:26:17;;;;;;;1.1;1;;;;;;;;;;;;;
2023/09/25 15:28:42;;;;;;;1;0.9;;;;;;;;;;;;;
2023/09/25 15:31:07;;;;;;;2.4;1.2;;;;;;;;;;;;;
2023/09/25 15:33:34;;;;;;;1.2;1;;;;;;;;;;;;;
2023/09/25 15:35:59;;;;;;;1.7;1.2;;;;;;;;;;;;;
2023/09/25 15:38:24;;;;;;;1.2;1.1;;;;;;;;;;;;;
2023/09/25 15:40:49;;;;;;;1;0.9;;;;;;;;;;;;;
2023/09/25 15:43:14;;;;;;;1.3;0.9;;;;;;;;;;;;;
2023/09/25 15:45:40;;;;;;;1.3;1;;;;;;;;;;;;;
2023/09/25 15:48:05;;;;;;;1.8;1;;;;;;;;;;;;;
2023/09/25 15:50:30;;;;;;;1.3;1;;;;;;;;;;;;;
2023/09/25 15:52:55;;;;;;;1.9;1.1;;;;;;;;;;;;;
2023/09/25 15:55:21;;;;;;;1.1;1;;;;;;;;;;;;;
2023/09/25 15:57:46;;;;;;;1.2;1;;;;;;;;;;;;;
2023/09/25 16:00:15;;;;;;;3.7;1.6;;;;;;;;;;;;;
2023/09/25 16:02:40;;;;;;;2.1;1.1;;;;;;;;;;;;;
2023/09/25 16:05:06;;;;;;;0.9;0.9;;;;;;;;;;;;;
2023/09/25 16:07:30;;;;;;;2.3;1.8;;;;;;;;;;;;;
2023/09/25 16:09:56;;;;;;;1.8;1.2;;;;;;;;;;;;;
2023/09/25 16:12:21;;;;;;;1.7;1;;;;;;;;;;;;;
2023/09/25 16:14:48;;;;;;;2.5;1.4;;;;;;;;;;;;;
2023/09/25 16:17:12;;;;;;;1.8;1.2;;;;;;;;;;;;;
2023/09/25 16:19:39;;;;;;;1.5;1.3;;;;;;;;;;;;;
2023/09/25 16:22:04;;;;;;;2.4;1.4;;;;;;;;;;;;;
2023/09/25 16:24:29;;;;;;;1.8;1.1;;;;;;;;;;;;;
2023/09/25 16:26:56;;;;;;;1.1;1;;;;;;;;;;;;;
2023/09/25 16:29:21;;;;;;;2.2;0.9;;;;;;;;;;;;;
2023/09/25 16:31:46;;;;;;;2.6;1.3;;;;;;;;;;;;;
2023/09/25 16:34:15;;;;;;;1.2;1.1;;;;;;;;;;;;;
2023/09/25 16:36:37;;;;;;;1.5;1.2;;;;;;;;;;;;;
2023/09/25 16:39:03;;;;;;;2.5;1.2;;;;;;;;;;;;;
2023/09/25 16:41:29;;;;;;;3.3;1.6;;;;;;;;;;;;;
2023/09/25 16:43:54;;;;;;;2.2;1.2;;;;;;;;;;;;;
2023/09/25 16:46:19;;;;;;;1.6;1.3;;;;;;;;;;;;;
2023/09/25 16:48:48;;;;;;;1.7;1.5;;;;;;;;;;;;;
2023/09/25 16:51:13;;;;;;;3;1.5;;;;;;;;;;;;;
2023/09/25 16:53:38;;;;;;;2.1;1.9;;;;;;;;;;;;;
2023/09/25 16:56:03;;;;;;;1.9;1.5;;;;;;;;;;;;;
2023/09/25 16:58:32;;;;;;;3.5;2;;;;;;;;;;;;;
2023/09/25 17:00:56;;;;;;;2.1;1.6;;;;;;;;;;;;;
2023/09/25 17:03:21;;;;;;;2.1;1.7;;;;;;;;;;;;;
2023/09/25 17:05:47;;;;;;;3;1.8;;;;;;;;;;;;;
2023/09/25 17:08:12;;;;;;;3.4;2.5;;;;;;;;;;;;;
2023/09/25 17:10:37;;;;;;;4.1;2.1;;;;;;;;;;;;;
2023/09/25 17:13:08;;;;;;;3.5;2.2;;;;;;;;;;;;;
2023/09/25 17:15:28;;;;;;;3.3;2.3;;;;;;;;;;;;;
2023/09/25 17:17:53;;;;;;;3.4;2.4;;;;;;;;;;;;;
2023/09/25 17:20:18;;;;;;;4.1;2.6;;;;;;;;;;;;;
2023/09/25 17:22:44;;;;;;;2.1;1.9;;;;;;;;;;;;;
2023/09/25 17:25:12;;;;;;;3.1;2.2;;;;;;;;;;;;;
2023/09/25 17:27:35;;;;;;;3;2;;;;;;;;;;;;;
2023/09/25 17:30:01;;;;;;;4.6;2.4;;;;;;;;;;;;;
2023/09/25 17:32:27;;;;;;;5.2;2.5;;;;;;;;;;;;;
2023/09/25 17:34:52;;;;;;;2.8;2.3;;;;;;;;;;;;;
2023/09/25 17:37:18;;;;;;;4.3;2.1;;;;;;;;;;;;;
2023/09/25 17:39:44;;;;;;;2;1.7;;;;;;;;;;;;;
2023/09/25 17:42:09;;;;;;;2.8;1.4;;;;;;;;;;;;;
2023/09/25 17:44:34;;;;;;;2.4;1.7;;;;;;;;;;;;;
2023/09/25 17:46:59;;;;;;;4;1.8;;;;;;;;;;;;;
2023/09/25 17:49:24;;;;;;;2.3;1.8;;;;;;;;;;;;;
2023/09/25 17:51:52;;;;;;;3;1.6;;;;;;;;;;;;;
2023/09/25 17:54:17;;;;;;;3.1;1.6;;;;;;;;;;;;;
2023/09/25 17:56:42;;;;;;;2;1.6;;;;;;;;;;;;;
2023/09/25 17:59:07;;;;;;;3.6;1.6;;;;;;;;;;;;;
2023/09/25 18:01:33;;;;;;;3.5;2.3;;;;;;;;;;;;;
2023/09/25 18:03:58;;;;;;;4.5;2.7;;;;;;;;;;;;;
2023/09/25 18:06:24;;;;;;;2.7;2.4;;;;;;;;;;;;;
2023/09/25 18:08:49;;;;;;;3.6;2.1;;;;;;;;;;;;;
2023/09/25 18:11:15;;;;;;;2.4;2.2;;;;;;;;;;;;;
2023/09/25 18:13:40;;;;;;;3.4;2.2;;;;;;;;;;;;;
2023/09/25 18:16:05;;;;;;;2.7;2.2;;;;;;;;;;;;;
2023/09/25 18:18:30;;;;;;;4.4;2.3;;;;;;;;;;;;;
2023/09/25 18:20:56;;;;;;;4.3;2.7;;;;;;;;;;;;;
2023/09/25 18:23:21;;;;;;;4.1;2.6;;;;;;;;;;;;;
2023/09/25 18:25:46;;;;;;;3.3;2.3;;;;;;;;;;;;;
2023/09/25 18:28:11;;;;;;;3.3;2.1;;;;;;;;;;;;;
2023/09/25 18:30:37;;;;;;;5.1;2.4;;;;;;;;;;;;;
2023/09/25 18:33:08;;;;;;;2.3;2.1;;;;;;;;;;;;;
2023/09/25 18:35:28;;;;;;;2.1;1.9;;;;;;;;;;;;;
2023/09/25 18:37:54;;;;;;;2.3;1.9;;;;;;;;;;;;;
2023/09/25 18:40:19;;;;;;;3.2;2.2;;;;;;;;;;;;;
2023/09/25 18:42:45;;;;;;;2.5;2;;;;;;;;;;;;;
2023/09/25 18:45:10;;;;;;;2.2;1.6;;;;;;;;;;;;;
2023/09/25 18:47:36;;;;;;;2.3;1.9;;;;;;;;;;;;;
2023/09/25 18:50:01;;;;;;;3.5;1.9;;;;;;;;;;;;;
2023/09/25 18:52:27;;;;;;;4.8;2.2;;;;;;;;;;;;;
2023/09/25 18:54:51;;;;;;;2.3;2.1;;;;;;;;;;;;;
2023/09/25 18:57:17;;;;;;;4.1;1.9;;;;;;;;;;;;;
2023/09/25 18:59:42;;;;;;;2.2;2;;;;;;;;;;;;;
2023/09/25 19:02:06;;;;;;;4.4;2.5;;;;;;;;;;;;;
2023/09/25 19:04:32;;;;;;;4;3.1;;;;;;;;;;;;;
2023/09/25 19:06:58;;;;;;;7.2;4.1;;;;;;;;;;;;;
2023/09/25 19:09:23;;;;;;;8.3;5.3;;;;;;;;;;;;;
2023/09/25 19:11:50;;;;;;;7.7;4.8;;;;;;;;;;;;;
2023/09/25 19:14:15;;;;;;;7.6;4.5;;;;;;;;;;;;;
2023/09/25 19:16:40;;;;;;;5;3.6;;;;;;;;;;;;;
2023/09/25 19:19:06;;;;;;;5.3;3.7;;;;;;;;;;;;;
2023/09/25 19:21:32;;;;;;;4.4;3.3;;;;;;;;;;;;;
2023/09/25 19:23:57;;;;;;;5;3.2;;;;;;;;;;;;;
2023/09/25 19:26:22;;;;;;;5.1;3;;;;;;;;;;;;;
2023/09/25 19:28:47;;;;;;;4.9;3.3;;;;;;;;;;;;;
2023/09/25 19:31:13;;;;;;;3.5;2.5;;;;;;;;;;;;;
2023/09/25 19:33:38;;;;;;;4.4;3;;;;;;;;;;;;;
2023/09/25 19:36:05;;;;;;;4.1;2.7;;;;;;;;;;;;;
2023/09/25 19:38:31;;;;;;;3.7;2.7;;;;;;;;;;;;;